createdAt,value
2023-03-12T00:02:12.167Z,9.92
2023-03-12T00:04:38.541Z,9.92
2023-03-12T00:07:04.941Z,9.85
2023-03-12T00:09:31.376Z,9.41
2023-03-12T00:11:57.790Z,9.41
2023-03-12T00:14:24.190Z,9.58
2023-03-12T00:16:50.601Z,9.90
2023-03-12T00:19:17.033Z,10.10
2023-03-12T00:21:43.403Z,9.69
2023-03-12T00:24:09.782Z,9.80
2023-03-12T00:26:36.294Z,9.82
2023-03-12T00:29:02.749Z,9.92
2023-03-12T00:31:29.188Z,9.79
2023-03-12T00:33:55.579Z,9.87
2023-03-12T00:36:21.947Z,10.32
2023-03-12T00:38:48.320Z,10.47
2023-03-12T00:41:14.674Z,10.57
2023-03-12T00:43:41.067Z,10.74
2023-03-12T00:46:07.483Z,10.04
2023-03-12T00:48:33.869Z,10.03
2023-03-12T00:51:00.239Z,10.60
2023-03-12T00:53:26.619Z,10.81
2023-03-12T00:55:53.007Z,10.80
2023-03-12T00:58:19.367Z,10.48
2023-03-12T01:00:45.755Z,10.32
2023-03-12T01:03:12.114Z,10.55
2023-03-12T01:05:38.470Z,10.43
2023-03-12T01:08:04.859Z,9.30
2023-03-12T01:10:31.256Z,9.09
2023-03-12T01:12:57.635Z,9.82
2023-03-12T01:15:24.023Z,10.23
2023-03-12T01:17:50.475Z,10.30
2023-03-12T01:20:16.890Z,10.15
2023-03-12T01:22:43.297Z,10.30
2023-03-12T01:25:09.662Z,10.39
2023-03-12T01:27:36.035Z,10.24
2023-03-12T01:30:02.487Z,10.19
2023-03-12T01:32:28.901Z,10.31
2023-03-12T01:34:55.295Z,10.09
2023-03-12T01:37:21.672Z,10.14
2023-03-12T01:39:48.020Z,10.25
2023-03-12T01:42:14.473Z,10.24
2023-03-12T01:44:40.861Z,9.84
2023-03-12T01:47:07.292Z,10.30
2023-03-12T01:49:33.720Z,10.29
2023-03-12T01:52:00.143Z,10.29
2023-03-12T01:54:26.509Z,10.44
2023-03-12T01:56:52.898Z,10.60
2023-03-12T01:59:19.314Z,10.62
2023-03-12T02:01:45.706Z,10.61
2023-03-12T02:04:12.070Z,10.49
2023-03-12T02:06:38.483Z,10.52
2023-03-12T02:09:04.853Z,10.55
2023-03-12T02:11:31.239Z,10.65
2023-03-12T02:13:57.646Z,10.71
2023-03-12T02:16:24.141Z,10.79
2023-03-12T02:18:50.542Z,10.85
2023-03-12T02:21:16.916Z,10.91
2023-03-12T02:23:43.268Z,10.88
2023-03-12T02:26:09.632Z,10.95
2023-03-12T02:28:36.003Z,10.90
2023-03-12T02:31:02.477Z,10.92
2023-03-12T02:33:28.876Z,10.92
2023-03-12T02:35:55.254Z,10.94
2023-03-12T02:38:21.671Z,10.97
2023-03-12T02:40:48.031Z,11.05
2023-03-12T02:43:14.393Z,11.01
2023-03-12T02:45:40.801Z,10.92
2023-03-12T02:48:07.204Z,10.96
2023-03-12T02:50:33.591Z,11.00
2023-03-12T02:53:00.048Z,10.90
2023-03-12T02:55:26.553Z,10.89
2023-03-12T02:57:52.941Z,10.80
2023-03-12T03:00:19.339Z,10.52
2023-03-12T03:02:45.751Z,10.22
2023-03-12T03:05:12.152Z,10.30
2023-03-12T03:07:38.538Z,10.64
2023-03-12T03:10:05.016Z,10.70
2023-03-12T03:12:31.475Z,10.64
2023-03-12T03:14:57.878Z,10.75
2023-03-12T03:17:24.288Z,10.90
2023-03-12T03:19:50.677Z,10.80
2023-03-12T03:22:17.076Z,10.69
2023-03-12T03:24:43.471Z,10.51
2023-03-12T03:27:09.848Z,9.98
2023-03-12T03:29:36.248Z,9.89
2023-03-12T03:32:02.605Z,9.80
2023-03-12T03:34:28.993Z,9.55
2023-03-12T03:36:55.434Z,9.44
2023-03-12T03:39:21.787Z,9.37
2023-03-12T03:41:48.160Z,9.55
2023-03-12T03:44:14.522Z,9.52
2023-03-12T03:46:40.984Z,9.41
2023-03-12T03:49:07.437Z,9.55
2023-03-12T03:51:33.889Z,9.53
2023-03-12T03:54:00.263Z,9.85
2023-03-12T03:56:26.658Z,9.95
2023-03-12T03:58:53.024Z,10.16
2023-03-12T04:01:19.392Z,10.21
2023-03-12T04:03:45.851Z,10.31
2023-03-12T04:06:12.252Z,10.24
2023-03-12T04:08:38.595Z,10.48
2023-03-12T04:11:04.974Z,10.75
2023-03-12T04:13:31.336Z,10.72
2023-03-12T04:15:57.710Z,10.88
2023-03-12T04:18:24.436Z,10.57
2023-03-12T04:20:50.822Z,10.19
2023-03-12T04:23:17.188Z,10.46
2023-03-12T04:25:43.620Z,10.65
2023-03-12T04:28:10.114Z,10.60
2023-03-12T04:30:36.483Z,10.82
2023-03-12T04:33:02.889Z,10.76
2023-03-12T04:35:29.246Z,10.66
2023-03-12T04:37:55.620Z,10.78
2023-03-12T04:40:21.986Z,10.80
2023-03-12T04:42:48.348Z,10.68
2023-03-12T04:45:14.725Z,10.89
2023-03-12T04:47:41.112Z,10.74
2023-03-12T04:50:07.492Z,10.95
2023-03-12T04:52:33.887Z,11.12
2023-03-12T04:55:00.333Z,11.35
2023-03-12T04:57:26.774Z,11.36
2023-03-12T04:59:53.162Z,11.34
2023-03-12T05:02:19.539Z,11.43
2023-03-12T05:04:45.914Z,11.55
2023-03-12T05:07:12.285Z,11.64
2023-03-12T05:09:38.658Z,11.68
2023-03-12T05:12:05.013Z,11.38
2023-03-12T05:14:31.455Z,11.02
2023-03-12T05:16:57.822Z,10.68
2023-03-12T05:19:24.185Z,10.59
2023-03-12T05:21:50.571Z,10.56
2023-03-12T05:24:16.949Z,10.51
2023-03-12T05:26:43.326Z,10.54
2023-03-12T05:29:09.702Z,10.31
2023-03-12T05:31:36.150Z,10.27
2023-03-12T05:34:02.526Z,10.77
2023-03-12T05:36:28.893Z,10.96
2023-03-12T05:38:55.261Z,11.15
2023-03-12T05:41:21.672Z,11.16
2023-03-12T05:43:48.085Z,10.89
2023-03-12T05:46:14.483Z,10.32
2023-03-12T05:48:40.882Z,10.62
2023-03-12T05:51:07.333Z,10.89
2023-03-12T05:53:33.695Z,10.93
2023-03-12T05:56:00.098Z,11.23
2023-03-12T05:58:26.572Z,11.47
2023-03-12T06:00:52.971Z,11.34
2023-03-12T06:03:19.454Z,11.34
2023-03-12T06:05:45.888Z,11.00
2023-03-12T06:08:12.301Z,10.69
2023-03-12T06:10:38.694Z,10.50
2023-03-12T06:13:05.176Z,10.43
2023-03-12T06:15:31.527Z,10.37
2023-03-12T06:17:57.914Z,10.45
2023-03-12T06:20:24.299Z,10.65
2023-03-12T06:22:50.675Z,10.67
2023-03-12T06:25:17.057Z,10.76
2023-03-12T06:27:43.430Z,10.78
2023-03-12T06:30:09.825Z,10.89
2023-03-12T06:32:36.323Z,11.10
2023-03-12T06:35:02.889Z,11.07
2023-03-12T06:37:29.282Z,11.02
2023-03-12T06:39:55.692Z,10.88
2023-03-12T06:42:22.070Z,10.66
2023-03-12T06:44:48.418Z,10.98
2023-03-12T06:47:17.447Z,10.49
2023-03-12T06:49:44.015Z,10.71
2023-03-12T06:52:10.403Z,10.83
2023-03-12T06:54:36.798Z,10.79
2023-03-12T06:57:03.186Z,10.81
2023-03-12T06:59:29.573Z,10.83
2023-03-12T07:01:56.051Z,10.62
2023-03-12T07:04:22.452Z,10.86
2023-03-12T07:06:48.814Z,10.91
2023-03-12T07:09:15.162Z,10.81
2023-03-12T07:11:41.550Z,10.76
2023-03-12T07:14:08.070Z,10.82
2023-03-12T07:16:34.470Z,11.03
2023-03-12T07:19:00.984Z,10.74
2023-03-12T07:21:27.366Z,10.76
2023-03-12T07:23:53.760Z,10.88
2023-03-12T07:26:20.127Z,10.99
2023-03-12T07:28:46.591Z,10.91
2023-03-12T07:31:12.990Z,11.13
2023-03-12T07:33:39.522Z,11.23
2023-03-12T07:36:06.054Z,11.35
2023-03-12T07:38:32.541Z,11.85
2023-03-12T07:40:58.946Z,12.09
2023-03-12T07:43:25.448Z,11.96
2023-03-12T07:45:51.907Z,11.78
2023-03-12T07:48:18.448Z,11.82
2023-03-12T07:50:44.858Z,12.11
2023-03-12T07:53:11.227Z,11.72
2023-03-12T07:55:37.713Z,12.25
2023-03-12T07:58:04.296Z,12.19
2023-03-12T08:00:31.001Z,12.38
2023-03-12T08:02:57.618Z,12.18
2023-03-12T08:05:24.056Z,11.69
2023-03-12T08:07:50.440Z,11.71
2023-03-12T08:10:16.856Z,11.83
2023-03-12T08:12:43.237Z,11.78
2023-03-12T08:15:09.690Z,11.71
2023-03-12T08:17:36.069Z,11.68
2023-03-12T08:20:02.470Z,11.29
2023-03-12T08:22:28.858Z,11.56
2023-03-12T08:24:55.260Z,11.45
2023-03-12T08:27:21.671Z,11.66
2023-03-12T08:29:48.037Z,11.51
2023-03-12T08:32:14.547Z,11.72
2023-03-12T08:34:41.081Z,11.76
2023-03-12T08:37:07.469Z,11.64
2023-03-12T08:39:33.874Z,11.49
2023-03-12T08:42:00.302Z,11.51
2023-03-12T08:44:26.676Z,11.75
2023-03-12T08:46:53.094Z,11.52
2023-03-12T08:49:19.554Z,11.66
2023-03-12T08:51:45.947Z,11.78
2023-03-12T08:54:12.328Z,12.18
2023-03-12T08:56:38.700Z,12.01
2023-03-12T08:59:05.084Z,12.23
2023-03-12T09:01:31.553Z,12.17
2023-03-12T09:03:58.006Z,12.29
2023-03-12T09:06:24.448Z,12.14
2023-03-12T09:08:50.828Z,12.47
2023-03-12T09:11:17.208Z,12.33
2023-03-12T09:14:33.537Z,12.41
2023-03-12T09:16:29.954Z,12.40
2023-03-12T09:18:56.362Z,12.57
2023-03-12T09:21:22.808Z,12.76
2023-03-12T09:23:49.261Z,13.12
2023-03-12T09:26:15.626Z,13.36
2023-03-12T09:28:41.977Z,13.10
2023-03-12T09:31:08.463Z,13.23
2023-03-12T09:33:34.875Z,13.43
2023-03-12T09:36:01.279Z,13.08
2023-03-12T09:38:27.703Z,12.97
2023-03-12T09:40:54.051Z,13.11
2023-03-12T09:43:20.487Z,13.61
2023-03-12T09:45:47.046Z,13.27
2023-03-12T09:48:13.443Z,13.23
2023-03-12T09:50:39.841Z,12.81
2023-03-12T09:53:06.220Z,12.87
2023-03-12T09:55:32.591Z,12.78
2023-03-12T09:57:58.973Z,12.91
2023-03-12T10:00:25.443Z,13.18
2023-03-12T10:02:51.856Z,13.08
2023-03-12T10:05:18.330Z,12.46
2023-03-12T10:07:44.845Z,12.81
2023-03-12T10:10:11.293Z,12.97
2023-03-12T10:12:37.743Z,13.04
2023-03-12T10:15:04.184Z,12.74
2023-03-12T10:17:30.626Z,13.57
2023-03-12T10:19:57.003Z,13.67
2023-03-12T10:22:23.405Z,13.77
2023-03-12T10:24:49.757Z,13.77
2023-03-12T10:27:16.192Z,13.98
2023-03-12T10:29:44.642Z,14.08
2023-03-12T10:32:11.313Z,14.22
2023-03-12T10:34:37.724Z,14.06
2023-03-12T10:37:04.137Z,14.24
2023-03-12T10:39:30.502Z,13.66
2023-03-12T10:41:56.917Z,14.34
2023-03-12T10:44:23.497Z,14.33
2023-03-12T10:46:49.949Z,14.27
2023-03-12T10:49:16.465Z,14.39
2023-03-12T10:51:42.878Z,14.19
2023-03-12T10:54:09.227Z,14.11
2023-03-12T10:56:35.606Z,14.48
2023-03-12T10:59:02.034Z,14.75
2023-03-12T11:01:28.462Z,15.12
2023-03-12T11:03:54.923Z,14.36
2023-03-12T11:06:21.461Z,15.05
2023-03-12T11:08:47.891Z,14.83
2023-03-12T11:11:14.242Z,15.28
2023-03-12T11:13:40.618Z,14.55
2023-03-12T11:16:07.028Z,14.42
2023-03-12T11:18:33.440Z,14.58
2023-03-12T11:20:59.792Z,14.88
2023-03-12T11:23:26.206Z,15.05
2023-03-12T11:25:52.741Z,15.08
2023-03-12T11:28:19.151Z,14.74
2023-03-12T11:30:45.642Z,14.47
2023-03-12T11:33:12.101Z,14.63
2023-03-12T11:35:38.489Z,14.65
2023-03-12T11:38:04.938Z,14.65
2023-03-12T11:40:31.297Z,15.54
2023-03-12T11:42:57.639Z,15.52
2023-03-12T11:45:24.051Z,14.79
2023-03-12T11:47:50.476Z,14.68
2023-03-12T11:50:16.978Z,15.11
2023-03-12T11:52:43.358Z,15.33
2023-03-12T11:55:09.869Z,15.92
2023-03-12T11:57:36.424Z,15.49
2023-03-12T12:00:02.814Z,15.18
2023-03-12T12:02:29.373Z,15.65
2023-03-12T12:04:55.877Z,16.41
2023-03-12T12:07:22.285Z,16.25
2023-03-12T12:09:48.685Z,16.09
2023-03-12T12:12:15.072Z,16.13
2023-03-12T12:14:41.442Z,15.89
2023-03-12T12:17:08.014Z,15.84
2023-03-12T12:19:34.499Z,15.85
2023-03-12T12:22:00.909Z,15.78
2023-03-12T12:24:27.448Z,15.91
2023-03-12T12:26:55.241Z,15.27
2023-03-12T12:29:21.662Z,15.07
2023-03-12T12:31:48.217Z,15.14
2023-03-12T12:34:14.793Z,14.96
2023-03-12T12:36:41.199Z,15.02
2023-03-12T12:39:07.605Z,15.01
2023-03-12T12:41:34.140Z,15.64
2023-03-12T12:44:00.518Z,15.65
2023-03-12T12:46:27.016Z,15.44
2023-03-12T12:48:53.460Z,15.27
2023-03-12T12:51:19.869Z,15.47
2023-03-12T12:53:46.304Z,15.75
2023-03-12T12:56:15.308Z,15.93
2023-03-12T12:58:41.949Z,15.48
2023-03-12T13:01:08.439Z,15.51
2023-03-12T13:03:34.846Z,15.93
2023-03-12T13:06:01.251Z,15.97
2023-03-12T13:08:27.616Z,15.90
2023-03-12T13:11:02.541Z,16.17
2023-03-12T13:13:39.298Z,15.91
2023-03-12T13:16:05.729Z,16.11
2023-03-12T13:18:32.186Z,16.55
2023-03-12T13:20:58.577Z,16.16
2023-03-12T13:23:24.968Z,15.28
2023-03-12T13:25:51.355Z,15.49
2023-03-12T13:28:17.723Z,15.65
2023-03-12T13:30:44.182Z,15.47
2023-03-12T13:33:10.600Z,16.01
2023-03-12T13:35:37.015Z,16.00
2023-03-12T13:38:03.430Z,16.20
2023-03-12T13:40:29.808Z,15.92
2023-03-12T13:42:56.171Z,16.29
2023-03-12T13:45:22.543Z,16.45
2023-03-12T13:47:48.939Z,15.88
2023-03-12T13:50:15.335Z,15.96
2023-03-12T13:52:41.781Z,16.35
2023-03-12T13:55:08.189Z,16.11
2023-03-12T13:57:35.826Z,16.02
2023-03-12T14:00:03.160Z,16.12
2023-03-12T14:02:29.600Z,15.64
2023-03-12T14:04:58.101Z,16.26
2023-03-12T14:07:24.573Z,15.97
2023-03-12T14:09:50.967Z,15.83
2023-03-12T14:12:17.407Z,15.75
2023-03-12T14:14:43.842Z,16.32
2023-03-12T14:17:10.242Z,16.39
2023-03-12T14:19:36.638Z,16.57
2023-03-12T14:22:03.014Z,17.03
2023-03-12T14:24:29.414Z,17.26
2023-03-12T14:26:55.865Z,16.57
2023-03-12T14:29:22.253Z,16.32
2023-03-12T14:31:48.761Z,16.26
2023-03-12T14:34:15.140Z,16.40
2023-03-12T14:36:41.607Z,16.16
2023-03-12T14:39:08.052Z,16.36
2023-03-12T14:41:34.456Z,16.09
2023-03-12T14:44:00.889Z,16.25
2023-03-12T14:46:27.356Z,16.87
2023-03-12T14:48:53.743Z,16.21
2023-03-12T14:51:22.206Z,15.91
2023-03-12T14:53:50.292Z,16.18
2023-03-12T14:56:16.729Z,16.76
2023-03-12T14:58:43.100Z,17.12
2023-03-12T15:01:09.481Z,17.00
2023-03-12T15:03:35.845Z,16.98
2023-03-12T15:06:02.283Z,17.37
2023-03-12T15:08:28.949Z,17.62
2023-03-12T15:10:55.344Z,17.68
2023-03-12T15:13:21.800Z,17.55
2023-03-12T15:15:48.240Z,17.30
2023-03-12T15:18:14.791Z,16.54
2023-03-12T15:20:41.386Z,16.84
2023-03-12T15:23:07.788Z,17.34
2023-03-12T15:25:34.154Z,17.23
2023-03-12T15:28:00.537Z,16.64
2023-03-12T15:30:26.977Z,17.36
2023-03-12T15:32:53.400Z,17.47
2023-03-12T15:35:20.035Z,17.08
2023-03-12T15:37:46.508Z,16.85
2023-03-12T15:40:13.102Z,17.17
2023-03-12T15:42:39.462Z,16.78
2023-03-12T15:45:05.830Z,17.39
2023-03-12T15:47:32.211Z,17.71
2023-03-12T15:49:58.624Z,17.51
2023-03-12T15:52:25.063Z,17.39
2023-03-12T15:54:51.445Z,17.13
2023-03-12T15:57:17.968Z,17.23
2023-03-12T15:59:44.401Z,16.75
2023-03-12T16:02:10.796Z,17.33
2023-03-12T16:04:37.166Z,16.68
2023-03-12T16:07:03.527Z,16.67
2023-03-12T16:09:29.918Z,17.30
2023-03-12T16:11:56.366Z,17.31
2023-03-12T16:14:22.867Z,17.18
2023-03-12T16:16:49.339Z,16.59
2023-03-12T16:19:15.835Z,16.78
2023-03-12T16:21:42.335Z,16.91
2023-03-12T16:24:08.742Z,16.91
2023-03-12T16:26:35.396Z,17.15
2023-03-12T16:29:01.765Z,16.96
2023-03-12T16:31:28.242Z,16.81
2023-03-12T16:33:54.670Z,16.66
2023-03-12T16:36:21.114Z,16.52
2023-03-12T16:38:47.624Z,16.95
2023-03-12T16:41:13.991Z,16.96
2023-03-12T16:43:40.409Z,16.95
2023-03-12T16:46:06.970Z,16.95
2023-03-12T16:48:33.395Z,16.62
2023-03-12T16:51:00.146Z,16.10
2023-03-12T16:53:26.600Z,16.33
2023-03-12T16:55:52.984Z,16.33
2023-03-12T16:58:19.444Z,16.25
2023-03-12T17:00:45.922Z,16.29
2023-03-12T17:03:12.410Z,16.53
2023-03-12T17:05:38.806Z,16.14
2023-03-12T17:08:05.189Z,16.05
2023-03-12T17:10:31.596Z,15.87
2023-03-12T17:12:57.985Z,15.82
2023-03-12T17:15:24.375Z,15.84
2023-03-12T17:17:50.781Z,15.87
2023-03-12T17:20:17.179Z,15.70
2023-03-12T17:22:43.542Z,15.65
2023-03-12T17:25:10.079Z,15.18
2023-03-12T17:27:36.473Z,15.27
2023-03-12T17:30:02.862Z,15.52
2023-03-12T17:32:29.349Z,15.61
2023-03-12T17:34:55.741Z,15.75
2023-03-12T17:37:22.114Z,15.75
2023-03-12T17:39:48.481Z,15.71
2023-03-12T17:42:14.896Z,15.58
2023-03-12T17:44:41.278Z,15.63
2023-03-12T17:47:07.747Z,15.51
2023-03-12T17:49:34.179Z,15.22
2023-03-12T17:52:00.563Z,15.43
2023-03-12T17:54:26.976Z,15.42
2023-03-12T17:56:53.392Z,15.51
2023-03-12T17:59:19.777Z,15.36
2023-03-12T18:01:46.252Z,15.11
2023-03-12T18:04:12.648Z,15.07
2023-03-12T18:06:39.021Z,15.18
2023-03-12T18:09:05.469Z,15.31
2023-03-12T18:11:31.853Z,14.93
2023-03-12T18:13:58.246Z,14.73
2023-03-12T18:16:24.757Z,14.72
2023-03-12T18:18:52.833Z,14.82
2023-03-12T18:21:19.476Z,14.85
2023-03-12T18:23:45.874Z,14.82
2023-03-12T18:26:12.311Z,14.62
2023-03-12T18:28:38.697Z,14.63
2023-03-12T18:31:05.156Z,14.59
2023-03-12T18:33:31.717Z,14.48
2023-03-12T18:35:58.229Z,14.56
2023-03-12T18:38:24.723Z,14.54
2023-03-12T18:40:51.132Z,14.41
2023-03-12T18:43:17.513Z,14.08
2023-03-12T18:45:43.939Z,14.11
2023-03-12T18:48:10.427Z,14.14
2023-03-12T18:50:36.871Z,14.27
2023-03-12T18:53:03.382Z,14.32
2023-03-12T18:55:29.785Z,14.21
2023-03-12T18:57:56.354Z,14.04
2023-03-12T19:00:22.999Z,13.91
2023-03-12T19:02:49.389Z,13.63
2023-03-12T19:05:15.931Z,13.69
2023-03-12T19:07:42.607Z,13.57
2023-03-12T19:10:09.382Z,13.53
2023-03-12T19:12:45.342Z,13.65
2023-03-12T19:15:15.515Z,13.72
2023-03-12T19:17:42.022Z,13.39
2023-03-12T19:20:08.428Z,13.47
2023-03-12T19:22:34.856Z,13.49
2023-03-12T19:25:01.311Z,13.64
2023-03-12T19:27:29.534Z,13.51
2023-03-12T19:29:56.158Z,13.60
2023-03-12T19:32:25.347Z,14.05
2023-03-12T19:34:54.060Z,13.55
2023-03-12T19:37:20.440Z,13.41
2023-03-12T19:39:46.829Z,13.68
2023-03-12T19:42:13.226Z,13.55
2023-03-12T19:44:39.764Z,13.98
2023-03-12T19:47:06.151Z,14.15
2023-03-12T19:49:32.577Z,14.24
2023-03-12T19:51:58.946Z,14.21
2023-03-12T19:54:25.347Z,14.26
2023-03-12T19:56:51.738Z,14.34
2023-03-12T19:59:18.143Z,14.32
2023-03-12T20:01:44.524Z,14.41
2023-03-12T20:04:10.910Z,14.39
2023-03-12T20:06:37.458Z,14.24
2023-03-12T20:09:03.866Z,14.13
2023-03-12T20:11:30.247Z,14.13
2023-03-12T20:13:56.759Z,14.15
2023-03-12T20:16:23.202Z,14.34
2023-03-12T20:18:49.610Z,14.42
2023-03-12T20:21:15.976Z,14.46
2023-03-12T20:23:42.362Z,14.52
2023-03-12T20:26:08.769Z,14.51
2023-03-12T20:28:35.265Z,14.50
2023-03-12T20:31:01.659Z,14.51
2023-03-12T20:33:28.083Z,14.52
2023-03-12T20:35:54.495Z,14.51
2023-03-12T20:38:20.853Z,14.45
2023-03-12T20:40:47.298Z,14.35
2023-03-12T20:43:13.824Z,14.30
2023-03-12T20:45:40.322Z,14.31
2023-03-12T20:48:06.898Z,14.29
2023-03-12T20:50:33.310Z,14.28
2023-03-12T20:52:59.723Z,14.22
2023-03-12T20:55:26.143Z,14.21
2023-03-12T20:57:52.619Z,14.18
2023-03-12T21:00:19.051Z,14.17
2023-03-12T21:02:45.538Z,14.11
2023-03-12T21:05:12.030Z,14.00
2023-03-12T21:07:38.479Z,13.90
2023-03-12T21:10:04.888Z,13.96
2023-03-12T21:12:31.410Z,13.26
2023-03-12T21:14:57.862Z,13.55
2023-03-12T21:17:24.414Z,13.33
2023-03-12T21:19:50.926Z,13.39
2023-03-12T21:22:17.361Z,13.36
2023-03-12T21:24:43.865Z,13.55
2023-03-12T21:27:10.275Z,13.56
2023-03-12T21:29:36.729Z,13.64
2023-03-12T21:32:03.226Z,13.65
2023-03-12T21:34:29.633Z,13.64
2023-03-12T21:36:56.032Z,13.60
2023-03-12T21:39:22.411Z,13.62
2023-03-12T21:41:48.832Z,13.57
2023-03-12T21:44:16.591Z,13.43
2023-03-12T21:46:43.277Z,13.33
2023-03-12T21:49:09.810Z,13.49
2023-03-12T21:51:39.026Z,13.30
2023-03-12T21:54:05.817Z,13.37
2023-03-12T21:56:32.241Z,12.91
2023-03-12T21:58:58.619Z,13.17
2023-03-12T22:01:25.253Z,13.31
2023-03-12T22:03:51.731Z,13.41
2023-03-12T22:06:18.190Z,13.27
2023-03-12T22:08:44.645Z,13.25
2023-03-12T22:11:11.059Z,12.94
2023-03-12T22:13:37.620Z,13.02
2023-03-12T22:16:04.146Z,13.03
2023-03-12T22:18:30.570Z,13.35
2023-03-12T22:20:56.955Z,13.40
2023-03-12T22:23:23.331Z,13.48
2023-03-12T22:25:49.716Z,13.50
2023-03-12T22:28:16.196Z,13.47
2023-03-12T22:30:42.563Z,13.55
2023-03-12T22:33:08.932Z,13.51
2023-03-12T22:35:35.456Z,13.53
2023-03-12T22:38:01.932Z,13.54
2023-03-12T22:40:28.476Z,13.50
2023-03-12T22:42:54.876Z,13.52
2023-03-12T22:45:22.474Z,13.56
2023-03-12T22:47:48.882Z,13.54
2023-03-12T22:50:15.237Z,13.48
2023-03-12T22:52:41.590Z,13.52
2023-03-12T22:55:07.974Z,13.60
2023-03-12T22:57:34.368Z,13.59
2023-03-12T23:00:00.727Z,13.63
2023-03-12T23:02:27.101Z,13.61
2023-03-12T23:04:53.628Z,13.56
2023-03-12T23:07:20.051Z,13.59
2023-03-12T23:09:46.537Z,13.60
2023-03-12T23:12:12.902Z,13.58
2023-03-12T23:14:39.275Z,13.60
2023-03-12T23:17:05.687Z,13.63
2023-03-12T23:19:32.107Z,13.60
2023-03-12T23:21:58.536Z,13.65
2023-03-12T23:24:24.954Z,13.26
2023-03-12T23:26:51.352Z,13.46
2023-03-12T23:29:17.749Z,13.35
2023-03-12T23:31:44.366Z,13.22
2023-03-12T23:34:10.806Z,13.43
2023-03-12T23:36:37.420Z,13.55
2023-03-12T23:39:03.829Z,13.59
2023-03-12T23:41:30.233Z,13.63
2023-03-12T23:43:56.637Z,13.76
2023-03-12T23:46:23.047Z,13.66
2023-03-12T23:48:49.459Z,13.73
2023-03-12T23:51:15.837Z,13.73
2023-03-12T23:53:42.264Z,13.75
2023-03-12T23:56:08.642Z,13.70
2023-03-12T23:58:35.013Z,13.69
